Time;durP1;ratioP1;P1;durP2;ratioP2;P2;SDS_P1;SDS_P2;PMS_P1;PMS_P2;Temp;Humidity;BMP_temperature;BMP_pressure;BME280_temperature;BME280_humidity;BME280_pressure;Samples;Min_cycle;Max_cycle;Signal;HPM_P1;HPM_P2
2021/05/05 00:00:44;;;;;;;1.13;0.68;;;9.70;99.90;;;;;;5032589;28;20292;-72
2021/05/05 00:03:10;;;;;;;0.60;0.60;;;9.70;99.90;;;;;;5032611;28;20211;-70
2021/05/05 00:05:37;;;;;;;3.90;0.50;;;9.70;99.90;;;;;;5032120;28;20314;-76
2021/05/05 00:08:04;;;;;;;1.02;0.52;;;9.60;99.90;;;;;;5032565;28;20265;-74
2021/05/05 00:10:31;;;;;;;0.45;0.45;;;9.60;99.90;;;;;;5032724;28;20249;-75
2021/05/05 00:12:57;;;;;;;0.40;0.38;;;9.60;99.90;;;;;;5032562;28;20211;-76
2021/05/05 00:15:25;;;;;;;1.13;0.50;;;9.70;99.90;;;;;;5031969;28;20232;-75
2021/05/05 00:17:51;;;;;;;0.95;0.60;;;9.70;99.90;;;;;;5032153;28;20214;-75
2021/05/05 00:20:20;;;;;;;0.95;0.50;;;9.70;99.90;;;;;;5032441;28;20738;-74
2021/05/05 00:22:47;;;;;;;0.73;0.60;;;9.60;99.90;;;;;;5032455;28;20251;-75
2021/05/05 00:25:13;;;;;;;1.10;0.60;;;9.60;99.90;;;;;;5032176;28;20281;-69
2021/05/05 00:27:40;;;;;;;0.60;0.60;;;9.60;99.90;;;;;;5031852;28;20711;-71
2021/05/05 00:30:10;;;;;;;1.15;0.57;;;9.60;99.90;;;;;;5032393;28;20204;-70
2021/05/05 00:32:37;;;;;;;0.55;0.55;;;9.50;99.90;;;;;;5032069;28;20294;-74
2021/05/05 00:35:04;;;;;;;3.35;0.50;;;9.50;99.90;;;;;;5032242;28;20248;-75
2021/05/05 00:37:31;;;;;;;0.88;0.50;;;9.50;99.90;;;;;;5032014;28;20640;-75
2021/05/05 00:39:57;;;;;;;0.52;0.40;;;9.50;99.90;;;;;;5032359;28;20501;-73
2021/05/05 00:42:24;;;;;;;1.50;0.70;;;9.50;99.90;;;;;;5034837;28;20862;-75
2021/05/05 00:44:56;;;;;;;0.80;0.40;;;9.50;99.90;;;;;;5036068;28;20234;-75
2021/05/05 00:47:24;;;;;;;1.80;0.40;;;9.50;99.90;;;;;;5035690;28;20208;-74
2021/05/05 00:49:51;;;;;;;1.73;0.80;;;9.40;99.90;;;;;;5036480;28;20620;-74
2021/05/05 00:52:17;;;;;;;1.27;0.60;;;9.40;99.90;;;;;;5036787;28;20291;-73
2021/05/05 00:54:44;;;;;;;0.75;0.70;;;9.40;99.90;;;;;;5037901;28;20220;-75
2021/05/05 00:57:11;;;;;;;1.27;0.82;;;9.50;99.90;;;;;;5037570;28;20208;-73
2021/05/05 00:59:38;;;;;;;0.70;0.70;;;9.50;99.90;;;;;;5037775;28;20204;-74
2021/05/05 01:02:05;;;;;;;1.15;0.80;;;9.50;99.90;;;;;;5037055;28;20220;-73
2021/05/05 01:04:31;;;;;;;1.95;0.60;;;9.50;99.90;;;;;;5036111;28;20216;-73
2021/05/05 01:06:59;;;;;;;1.13;0.60;;;9.50;99.90;;;;;;5035762;28;20197;-73
2021/05/05 01:09:26;;;;;;;1.02;0.70;;;9.50;99.90;;;;;;5035691;28;20262;-73
2021/05/05 01:11:54;;;;;;;0.90;0.90;;;9.50;99.90;;;;;;5035893;28;20192;-73
2021/05/05 01:14:20;;;;;;;2.97;0.90;;;9.50;99.90;;;;;;5036222;28;20766;-73
2021/05/05 01:16:46;;;;;;;2.78;0.85;;;9.50;99.90;;;;;;5036029;28;20785;-73
2021/05/05 01:19:13;;;;;;;0.65;0.60;;;9.50;99.90;;;;;;5036194;28;20639;-73
2021/05/05 01:21:40;;;;;;;1.10;0.80;;;9.50;99.90;;;;;;5036598;28;20354;-73
2021/05/05 01:24:07;;;;;;;1.77;1.02;;;9.50;99.90;;;;;;5037426;28;20250;-73
2021/05/05 01:26:34;;;;;;;1.38;0.65;;;9.50;99.90;;;;;;5037301;28;20208;-73
2021/05/05 01:29:01;;;;;;;0.73;0.73;;;9.50;99.90;;;;;;5037692;28;20204;-73
2021/05/05 01:31:28;;;;;;;1.35;0.80;;;9.50;99.90;;;;;;5036843;28;20219;-73
2021/05/05 01:33:55;;;;;;;1.58;0.63;;;9.40;99.90;;;;;;5036759;28;20306;-73
2021/05/05 01:36:24;;;;;;;2.35;1.10;;;9.40;99.90;;;;;;5036441;28;20204;-73
2021/05/05 01:38:52;;;;;;;3.08;0.75;;;9.40;99.90;;;;;;5036934;28;20228;-73
2021/05/05 01:41:20;;;;;;;1.02;0.60;;;9.40;99.90;;;;;;5036916;28;20751;-73
2021/05/05 01:43:46;;;;;;;0.63;0.63;;;9.40;99.90;;;;;;5037148;28;20315;-73
2021/05/05 01:46:13;;;;;;;1.42;1.00;;;9.40;99.90;;;;;;5036302;28;20741;-73
2021/05/05 01:48:39;;;;;;;0.90;0.65;;;9.40;99.90;;;;;;5037037;28;20211;-73
2021/05/05 01:51:05;;;;;;;5.70;1.05;;;9.50;99.90;;;;;;5036744;28;20303;-73
2021/05/05 01:53:32;;;;;;;2.08;0.90;;;9.50;99.90;;;;;;5036670;28;20554;-73
2021/05/05 01:56:00;;;;;;;2.28;0.70;;;9.40;99.90;;;;;;5036770;28;20302;-73
2021/05/05 01:58:26;;;;;;;0.95;0.95;;;9.40;99.90;;;;;;5036373;28;20617;-73
2021/05/05 02:00:52;;;;;;;0.85;0.80;;;9.40;99.90;;;;;;5036355;28;20257;-73
2021/05/05 02:03:19;;;;;;;0.73;0.73;;;9.40;99.90;;;;;;5036367;28;20295;-73
2021/05/05 02:05:45;;;;;;;3.10;0.70;;;9.40;99.90;;;;;;5036362;28;20243;-73
2021/05/05 02:08:11;;;;;;;1.50;0.60;;;9.40;99.90;;;;;;5036503;28;20306;-73
2021/05/05 02:10:39;;;;;;;1.65;0.95;;;9.40;99.90;;;;;;5036456;28;20211;-73
2021/05/05 02:13:07;;;;;;;0.70;0.60;;;9.40;99.90;;;;;;5036132;28;20200;-73
2021/05/05 02:15:33;;;;;;;0.57;0.57;;;9.30;99.90;;;;;;5036081;28;20365;-73
2021/05/05 02:17:59;;;;;;;1.13;1.02;;;9.20;99.90;;;;;;5036233;28;20210;-73
2021/05/05 02:20:26;;;;;;;0.63;0.63;;;9.20;99.90;;;;;;5036291;28;20566;-73
2021/05/05 02:22:52;;;;;;;1.35;0.93;;;9.20;99.90;;;;;;5036220;28;20315;-73
2021/05/05 02:25:18;;;;;;;0.80;0.80;;;9.30;99.90;;;;;;5035522;28;20570;-73
2021/05/05 02:27:46;;;;;;;0.98;0.85;;;9.30;99.90;;;;;;5035860;28;20230;-73
2021/05/05 02:30:14;;;;;;;1.15;1.05;;;9.40;99.90;;;;;;5035737;28;20706;-73
2021/05/05 02:32:43;;;;;;;4.75;0.85;;;9.40;99.90;;;;;;5035737;28;20208;-73
2021/05/05 02:35:10;;;;;;;1.60;0.90;;;9.40;99.90;;;;;;5036202;28;20228;-73
2021/05/05 02:37:37;;;;;;;1.25;0.95;;;9.40;99.90;;;;;;5035805;28;20200;-73
2021/05/05 02:40:05;;;;;;;3.35;0.85;;;9.40;99.90;;;;;;5035603;28;20665;-73
2021/05/05 02:42:31;;;;;;;1.35;0.68;;;9.40;99.90;;;;;;5035340;28;20388;-73
2021/05/05 02:44:58;;;;;;;0.70;0.70;;;9.50;99.90;;;;;;5035946;28;20567;-73
2021/05/05 02:47:25;;;;;;;6.93;3.60;;;9.40;99.90;;;;;;5035682;28;20342;-73
2021/05/05 02:49:51;;;;;;;4.75;2.00;;;9.50;99.90;;;;;;5035456;28;20297;-73
2021/05/05 02:52:18;;;;;;;0.90;0.80;;;9.50;99.90;;;;;;5035811;28;20289;-73
2021/05/05 02:54:45;;;;;;;3.33;1.85;;;9.50;99.90;;;;;;5035841;28;20311;-73
2021/05/05 02:57:11;;;;;;;3.58;2.40;;;9.40;99.90;;;;;;5035407;28;20258;-73
2021/05/05 02:59:38;;;;;;;4.00;0.80;;;9.40;99.90;;;;;;5036680;28;20219;-74
2021/05/05 03:02:05;;;;;;;0.88;0.65;;;9.40;99.90;;;;;;5035976;28;20216;-73
2021/05/05 03:04:32;;;;;;;0.60;0.60;;;9.30;99.90;;;;;;5034600;28;20224;-73
2021/05/05 03:06:59;;;;;;;2.05;1.10;;;9.20;99.90;;;;;;5035016;28;20295;-73
2021/05/05 03:09:26;;;;;;;0.80;0.80;;;9.20;99.90;;;;;;5034934;28;20208;-74
2021/05/05 03:11:54;;;;;;;1.50;0.65;;;9.20;99.90;;;;;;5034974;28;20647;-73
2021/05/05 03:14:21;;;;;;;1.50;1.00;;;9.20;99.90;;;;;;5034780;28;20220;-73
2021/05/05 03:16:47;;;;;;;1.05;0.60;;;9.10;99.90;;;;;;5034624;28;20319;-73
2021/05/05 03:19:13;;;;;;;2.55;1.20;;;9.10;99.90;;;;;;5034960;28;20239;-73
2021/05/05 03:21:41;;;;;;;1.48;0.80;;;9.10;99.90;;;;;;5034996;28;20238;-74
2021/05/05 03:24:08;;;;;;;2.00;1.00;;;9.10;99.90;;;;;;5035225;28;20307;-74
2021/05/05 03:26:35;;;;;;;1.10;0.90;;;9.00;99.90;;;;;;5035443;28;20208;-73
2021/05/05 03:29:02;;;;;;;2.50;1.25;;;9.00;99.90;;;;;;5035506;28;20294;-74
2021/05/05 03:31:28;;;;;;;1.73;0.90;;;9.00;99.90;;;;;;5035052;28;20674;-74
2021/05/05 03:33:55;;;;;;;1.20;0.95;;;9.00;99.90;;;;;;5035168;28;20765;-73
2021/05/05 03:36:21;;;;;;;1.23;0.80;;;9.00;99.90;;;;;;5034780;28;20596;-74
2021/05/05 03:38:49;;;;;;;1.98;1.00;;;9.00;99.90;;;;;;5034797;28;20662;-73
2021/05/05 03:41:15;;;;;;;1.30;0.80;;;9.00;99.90;;;;;;5034627;28;20294;-73
2021/05/05 03:43:41;;;;;;;1.38;1.00;;;9.00;99.90;;;;;;5034796;28;20266;-73
2021/05/05 03:46:08;;;;;;;1.50;0.65;;;9.00;99.90;;;;;;5035019;28;20247;-73
2021/05/05 03:48:34;;;;;;;1.17;0.90;;;9.00;99.90;;;;;;5034784;28;20291;-73
2021/05/05 03:51:02;;;;;;;4.18;3.05;;;9.10;99.90;;;;;;5034432;28;20247;-73
2021/05/05 03:53:29;;;;;;;5.18;2.38;;;9.00;99.90;;;;;;5034359;28;20212;-74
2021/05/05 03:55:56;;;;;;;2.78;0.95;;;9.00;99.90;;;;;;5034145;28;20298;-74
2021/05/05 03:58:23;;;;;;;2.53;0.93;;;9.00;99.90;;;;;;5034735;28;20318;-73
2021/05/05 04:00:50;;;;;;;1.27;0.80;;;9.00;99.90;;;;;;5034484;28;20295;-73
2021/05/05 04:03:16;;;;;;;0.93;0.93;;;9.10;99.90;;;;;;5034035;28;20323;-73
2021/05/05 04:05:42;;;;;;;1.35;0.90;;;9.00;99.90;;;;;;5034094;28;20200;-73
2021/05/05 04:08:09;;;;;;;1.25;0.73;;;9.00;99.90;;;;;;5034421;28;20300;-73
2021/05/05 04:10:35;;;;;;;1.27;0.80;;;9.00;99.90;;;;;;5033946;28;20290;-73
2021/05/05 04:13:03;;;;;;;2.05;1.45;;;9.00;99.90;;;;;;5034265;28;20667;-74
2021/05/05 04:15:30;;;;;;;4.18;2.40;;;9.00;99.90;;;;;;5033552;28;20228;-73
2021/05/05 04:17:56;;;;;;;0.88;0.80;;;9.00;99.90;;;;;;5033616;28;20204;-73
2021/05/05 04:20:22;;;;;;;0.73;0.73;;;9.00;99.90;;;;;;5033969;28;20239;-73
2021/05/05 04:22:49;;;;;;;1.00;1.00;;;9.00;99.90;;;;;;5033885;28;20306;-73
2021/05/05 04:25:17;;;;;;;0.60;0.60;;;9.00;99.90;;;;;;5034162;28;20255;-73
2021/05/05 04:27:44;;;;;;;2.15;1.02;;;9.00;99.90;;;;;;5033628;28;20531;-74
2021/05/05 04:30:13;;;;;;;0.85;0.85;;;9.00;99.90;;;;;;5034104;28;20236;-73
2021/05/05 04:32:40;;;;;;;1.30;0.82;;;9.00;99.90;;;;;;5033456;28;20211;-73
2021/05/05 04:35:07;;;;;;;0.80;0.70;;;9.10;99.90;;;;;;5033881;28;20311;-73
2021/05/05 04:37:34;;;;;;;1.23;1.02;;;9.10;99.90;;;;;;5033363;28;20295;-73
2021/05/05 04:40:01;;;;;;;1.42;1.30;;;9.10;99.90;;;;;;5033659;28;20199;-73
2021/05/05 04:42:27;;;;;;;0.93;0.88;;;9.10;99.90;;;;;;5034219;28;20223;-74
2021/05/05 04:44:54;;;;;;;1.10;1.00;;;9.10;99.90;;;;;;5033373;28;20314;-73
2021/05/05 04:47:21;;;;;;;2.70;1.90;;;9.10;99.90;;;;;;5033508;28;20204;-73
2021/05/05 04:49:47;;;;;;;1.88;1.70;;;9.00;99.90;;;;;;5034038;28;20675;-73
2021/05/05 04:52:14;;;;;;;0.80;0.70;;;9.00;99.90;;;;;;5033938;28;20207;-74
2021/05/05 04:54:40;;;;;;;2.30;0.60;;;8.90;99.90;;;;;;5034062;28;20282;-74
2021/05/05 04:57:06;;;;;;;1.63;0.80;;;8.90;99.90;;;;;;5033475;28;20225;-73
2021/05/05 04:59:33;;;;;;;0.90;0.70;;;8.90;99.90;;;;;;5033313;28;20242;-74
2021/05/05 05:01:59;;;;;;;1.05;0.55;;;8.80;99.90;;;;;;5033571;28;20708;-73
2021/05/05 05:04:26;;;;;;;0.88;0.70;;;8.80;99.90;;;;;;5033809;28;20234;-73
2021/05/05 05:06:53;;;;;;;1.25;0.60;;;8.80;99.90;;;;;;5033468;28;20239;-73
2021/05/05 05:09:19;;;;;;;1.15;0.70;;;8.80;99.90;;;;;;5033719;28;20211;-73
2021/05/05 05:11:45;;;;;;;0.60;0.60;;;8.80;99.90;;;;;;5033108;28;20214;-73
2021/05/05 05:14:12;;;;;;;2.15;0.80;;;8.70;99.90;;;;;;5033143;28;20230;-73
2021/05/05 05:16:38;;;;;;;0.60;0.60;;;8.70;99.90;;;;;;5033048;28;20290;-73
2021/05/05 05:19:04;;;;;;;0.40;0.40;;;8.70;99.90;;;;;;5033326;28;20710;-73
2021/05/05 05:21:32;;;;;;;0.98;0.60;;;8.70;99.90;;;;;;5033462;28;20310;-73
2021/05/05 05:23:58;;;;;;;7.82;4.35;;;8.70;99.90;;;;;;5033409;28;20682;-73
2021/05/05 05:26:24;;;;;;;0.80;0.80;;;8.70;99.90;;;;;;5033456;28;20295;-73
2021/05/05 05:28:51;;;;;;;1.27;1.17;;;8.80;99.90;;;;;;5036403;28;20369;-73
2021/05/05 05:31:17;;;;;;;0.80;0.80;;;8.70;99.90;;;;;;5036769;28;20318;-74
2021/05/05 05:33:44;;;;;;;0.65;0.65;;;8.80;99.90;;;;;;5036918;28;20311;-73
2021/05/05 05:36:10;;;;;;;0.60;0.60;;;8.80;99.90;;;;;;5036817;28;20215;-73
2021/05/05 05:38:37;;;;;;;0.60;0.60;;;8.90;99.90;;;;;;5037030;28;20286;-73
2021/05/05 05:41:04;;;;;;;2.10;1.08;;;8.90;99.90;;;;;;5037097;28;20363;-73
2021/05/05 05:43:30;;;;;;;1.25;0.88;;;8.90;99.90;;;;;;5036535;28;20276;-73
2021/05/05 05:45:56;;;;;;;2.45;0.90;;;8.90;99.90;;;;;;5036384;28;20291;-73
2021/05/05 05:48:22;;;;;;;1.00;0.88;;;9.00;99.90;;;;;;5036638;28;20210;-73
2021/05/05 05:50:49;;;;;;;0.70;0.70;;;9.10;99.90;;;;;;5036774;28;20210;-73
2021/05/05 05:53:15;;;;;;;0.88;0.80;;;9.10;99.90;;;;;;5036855;28;20291;-73
2021/05/05 05:55:44;;;;;;;2.45;1.70;;;9.00;99.90;;;;;;5036642;28;20777;-73
2021/05/05 05:58:10;;;;;;;3.92;2.58;;;9.10;99.90;;;;;;5036398;28;20227;-72
2021/05/05 06:00:37;;;;;;;1.52;1.30;;;9.00;99.90;;;;;;5036614;28;20696;-72
2021/05/05 06:03:05;;;;;;;4.88;1.45;;;9.00;99.90;;;;;;5036484;28;20228;-73
2021/05/05 06:05:32;;;;;;;2.13;1.40;;;9.00;99.90;;;;;;5035999;28;20232;-72
2021/05/05 06:07:58;;;;;;;2.85;1.33;;;9.10;99.90;;;;;;5036656;28;20295;-73
2021/05/05 06:10:24;;;;;;;2.25;1.50;;;9.10;99.90;;;;;;5035915;28;20212;-73
2021/05/05 06:12:52;;;;;;;1.40;1.20;;;9.20;99.90;;;;;;5036148;28;20286;-73
2021/05/05 06:15:18;;;;;;;2.80;1.15;;;9.20;99.90;;;;;;5036012;28;20310;-73
2021/05/05 06:17:44;;;;;;;1.15;1.05;;;9.30;99.90;;;;;;5036284;28;20295;-73
2021/05/05 06:20:11;;;;;;;1.33;1.23;;;9.40;99.90;;;;;;5035888;28;20295;-73
2021/05/05 06:22:38;;;;;;;2.65;1.70;;;9.30;99.90;;;;;;5035773;28;20224;-73
2021/05/05 06:25:06;;;;;;;1.40;1.30;;;9.40;99.90;;;;;;5036303;28;20523;-73
2021/05/05 06:27:33;;;;;;;1.13;1.10;;;9.50;99.90;;;;;;5036072;28;20207;-73
2021/05/05 06:30:00;;;;;;;1.55;1.13;;;9.60;99.90;;;;;;5036362;28;20307;-73
2021/05/05 06:32:27;;;;;;;4.03;1.23;;;9.60;99.90;;;;;;5035491;28;20299;-73
2021/05/05 06:34:54;;;;;;;3.70;1.35;;;9.70;99.90;;;;;;5035528;28;20227;-73
2021/05/05 06:37:20;;;;;;;1.23;1.10;;;9.70;99.90;;;;;;5035679;28;20213;-72
2021/05/05 06:39:46;;;;;;;7.00;1.60;;;9.70;99.90;;;;;;5034811;28;20208;-73
2021/05/05 06:42:13;;;;;;;1.85;1.30;;;9.80;99.90;;;;;;5035592;28;20319;-73
2021/05/05 06:44:39;;;;;;;2.80;1.63;;;9.80;99.90;;;;;;5035885;28;20255;-73
2021/05/05 06:47:06;;;;;;;1.70;1.60;;;9.80;99.90;;;;;;5035807;28;20716;-72
2021/05/05 06:49:34;;;;;;;1.95;1.50;;;9.80;99.90;;;;;;5035937;28;20338;-73
2021/05/05 06:52:01;;;;;;;2.30;1.30;;;9.80;99.90;;;;;;5035446;28;20200;-73
2021/05/05 06:54:27;;;;;;;3.90;1.70;;;9.80;99.90;;;;;;5036083;28;20232;-73
2021/05/05 06:56:54;;;;;;;1.90;1.75;;;9.80;99.90;;;;;;5034874;28;20557;-73
2021/05/05 06:59:20;;;;;;;2.75;1.40;;;9.80;99.90;;;;;;5035394;28;20235;-73
2021/05/05 07:01:47;;;;;;;1.65;1.55;;;9.90;99.90;;;;;;5035346;28;20748;-73
2021/05/05 07:04:14;;;;;;;4.05;1.75;;;10.00;99.90;;;;;;5035471;28;20575;-73
2021/05/05 07:06:41;;;;;;;2.88;1.38;;;10.00;99.90;;;;;;5034963;28;20289;-72
2021/05/05 07:09:08;;;;;;;2.45;1.77;;;10.00;99.90;;;;;;5035103;28;20204;-73
2021/05/05 07:11:38;;;;;;;3.35;1.83;;;10.00;99.90;;;;;;5035172;28;20291;-72
2021/05/05 07:14:05;;;;;;;3.92;1.70;;;10.10;99.90;;;;;;5034711;28;20227;-72
2021/05/05 07:16:32;;;;;;;2.97;2.00;;;10.00;99.90;;;;;;5034682;28;20674;-72
2021/05/05 07:18:58;;;;;;;3.65;2.05;;;10.10;99.90;;;;;;5035195;28;20208;-73
2021/05/05 07:21:26;;;;;;;4.90;2.00;;;10.10;99.90;;;;;;5034810;28;20206;-73
2021/05/05 07:23:52;;;;;;;2.20;2.00;;;10.20;99.90;;;;;;5034857;28;20246;-73
2021/05/05 07:26:19;;;;;;;2.40;1.60;;;10.30;99.90;;;;;;5034612;28;20290;-72
2021/05/05 07:28:46;;;;;;;2.00;1.70;;;10.40;99.90;;;;;;5034833;28;20295;-73
2021/05/05 07:31:13;;;;;;;2.30;2.10;;;10.30;99.90;;;;;;5034731;28;20655;-73
2021/05/05 07:33:39;;;;;;;2.60;2.08;;;10.20;99.90;;;;;;5034465;28;20319;-72
2021/05/05 07:36:11;;;;;;;1.95;1.40;;;10.30;99.90;;;;;;5034201;28;20247;-72
2021/05/05 07:39:03;;;;;;;1.63;1.52;;;10.30;99.90;;;;;;5034259;28;20209;-72
2021/05/05 07:47:25;;;;;;;5.07;2.22;;;10.30;99.90;;;;;;4993212;28;20201;-74
2021/05/05 07:49:54;;;;;;;5.10;1.60;;;10.40;99.90;;;;;;5025129;28;20211;-74
2021/05/05 07:52:21;;;;;;;2.38;1.70;;;10.10;99.90;;;;;;5034754;28;20203;-76
2021/05/05 07:54:49;;;;;;;2.17;1.20;;;10.20;99.90;;;;;;5034879;28;20266;-71
2021/05/05 07:57:18;;;;;;;3.05;1.83;;;10.30;99.90;;;;;;5034348;28;20239;-73
2021/05/05 07:59:45;;;;;;;1.95;1.45;;;10.10;99.40;;;;;;5035847;28;20204;-78
2021/05/05 08:02:11;;;;;;;2.25;1.52;;;10.00;98.70;;;;;;5033939;28;20216;-76
2021/05/05 08:04:37;;;;;;;1.75;1.10;;;10.30;99.00;;;;;;5035922;28;20252;-78
2021/05/05 08:07:04;;;;;;;3.97;2.35;;;10.60;96.40;;;;;;5035050;28;20207;-77
2021/05/05 08:09:33;;;;;;;1.30;1.20;;;11.90;95.10;;;;;;5035854;28;20287;-77
2021/05/05 08:12:00;;;;;;;2.15;1.60;;;13.20;90.40;;;;;;5036236;28;20199;-77
2021/05/05 08:14:26;;;;;;;2.25;1.30;;;14.50;84.00;;;;;;5034917;28;20510;-77
2021/05/05 08:16:53;;;;;;;0.90;0.90;;;15.60;77.60;;;;;;5034353;28;20546;-78
2021/05/05 08:19:19;;;;;;;2.55;1.70;;;14.90;66.70;;;;;;5035023;28;20207;-77
2021/05/05 08:21:46;;;;;;;1.92;1.27;;;14.10;71.80;;;;;;5034739;28;20559;-77
2021/05/05 08:24:12;;;;;;;2.00;1.48;;;13.40;72.10;;;;;;5032464;28;20231;-78
2021/05/05 08:26:40;;;;;;;3.38;1.38;;;13.20;76.60;;;;;;5035088;28;20227;-78
2021/05/05 08:29:07;;;;;;;3.03;1.55;;;13.00;82.30;;;;;;5034956;28;20211;-77
2021/05/05 08:31:33;;;;;;;4.75;1.42;;;12.10;78.80;;;;;;5034997;28;20626;-77
2021/05/05 08:34:00;;;;;;;4.15;1.85;;;11.40;80.60;;;;;;5034796;28;20362;-76
2021/05/05 08:36:26;;;;;;;1.40;1.30;;;11.00;85.80;;;;;;5034743;28;20610;-76
2021/05/05 08:38:55;;;;;;;2.13;1.60;;;10.90;86.40;;;;;;5034825;28;20222;-77
2021/05/05 08:41:22;;;;;;;2.35;1.42;;;11.90;85.60;;;;;;5036412;28;20211;-78
2021/05/05 08:43:48;;;;;;;4.25;2.00;;;13.20;81.40;;;;;;5035495;28;20322;-77
2021/05/05 08:46:17;;;;;;;2.20;1.83;;;14.00;77.30;;;;;;5036415;28;20243;-78
2021/05/05 08:48:44;;;;;;;1.30;1.17;;;15.40;76.80;;;;;;5035532;28;20298;-78
2021/05/05 08:51:12;;;;;;;2.05;1.45;;;16.40;68.20;;;;;;5035680;28;20249;-78
2021/05/05 08:53:41;;;;;;;2.28;1.38;;;16.40;65.10;;;;;;5035163;28;20200;-78
2021/05/05 08:56:07;;;;;;;1.23;1.13;;;16.90;62.70;;;;;;5034366;28;20241;-78
2021/05/05 08:58:34;;;;;;;1.77;1.50;;;16.50;59.70;;;;;;5035005;28;20239;-78
2021/05/05 09:01:00;;;;;;;2.03;1.00;;;17.10;55.70;;;;;;5034206;28;20698;-77
2021/05/05 09:03:32;;;;;;;2.03;1.33;;;15.80;58.10;;;;;;5037007;28;20228;-77
2021/05/05 09:05:59;;;;;;;2.25;1.30;;;14.30;59.60;;;;;;5038444;28;20634;-76
2021/05/05 09:08:27;;;;;;;4.72;1.60;;;13.40;60.80;;;;;;5038195;28;20211;-76
2021/05/05 09:10:59;;;;;;;2.50;1.70;;;12.90;64.10;;;;;;5037496;28;20675;-77
2021/05/05 09:13:47;;;;;;;3.63;1.98;;;13.00;64.60;;;;;;5038222;28;20663;-78
2021/05/05 09:16:15;;;;;;;3.38;2.05;;;13.10;66.10;;;;;;5039254;28;20204;-76
2021/05/05 09:18:57;;;;;;;1.10;1.00;;;15.30;62.50;;;;;;5038781;28;20600;-77
2021/05/05 09:21:25;;;;;;;1.45;1.10;;;17.20;56.40;;;;;;5039072;28;20210;-78
2021/05/05 09:23:52;;;;;;;0.80;0.80;;;18.20;52.00;;;;;;5037938;28;20228;-77
2021/05/05 09:26:35;;;;;;;3.83;1.45;;;18.40;49.10;;;;;;5037509;28;20346;-77
2021/05/05 09:29:01;;;;;;;2.65;1.50;;;17.40;48.70;;;;;;5038148;28;20290;-77
2021/05/05 09:31:35;;;;;;;1.65;1.20;;;17.10;48.80;;;;;;5038211;28;20291;-78
2021/05/05 09:34:03;;;;;;;1.40;1.00;;;17.00;50.50;;;;;;5037832;28;20786;-78
2021/05/05 09:36:30;;;;;;;2.20;1.23;;;17.90;49.70;;;;;;5037980;28;20283;-78
2021/05/05 09:38:57;;;;;;;1.30;1.20;;;19.50;48.00;;;;;;5037684;28;20232;-78
2021/05/05 09:41:26;;;;;;;2.20;1.70;;;20.30;44.60;;;;;;5038069;28;20453;-78
2021/05/05 09:43:54;;;;;;;3.60;1.33;;;20.70;42.60;;;;;;5038099;28;20493;-78
2021/05/05 09:46:41;;;;;;;2.03;1.13;;;21.90;39.90;;;;;;5037612;28;20485;-78
2021/05/05 09:49:20;;;;;;;2.00;1.23;;;21.90;36.60;;;;;;5038786;28;20431;-77
2021/05/05 09:51:49;;;;;;;1.80;1.13;;;21.70;37.30;;;;;;5038382;28;20532;-77
2021/05/05 09:54:26;;;;;;;2.00;1.20;;;22.20;38.50;;;;;;5037809;28;20576;-77
2021/05/05 09:56:53;;;;;;;2.00;1.40;;;22.20;37.70;;;;;;5037989;28;20525;-77
2021/05/05 09:59:20;;;;;;;2.00;1.17;;;21.60;38.50;;;;;;5038139;28;20536;-77
2021/05/05 10:02:00;;;;;;;2.53;1.53;;;21.20;39.90;;;;;;5037659;28;20450;-78
2021/05/05 10:04:27;;;;;;;4.50;1.20;;;20.00;41.50;;;;;;5037545;28;20469;-77
2021/05/05 10:07:00;;;;;;;2.37;1.37;;;20.90;42.50;;;;;;5038601;28;20442;-78
2021/05/05 10:09:27;;;;;;;2.27;1.30;;;21.70;40.80;;;;;;5038561;28;20447;-77
2021/05/05 10:11:54;;;;;;;2.90;1.13;;;22.00;38.70;;;;;;5038479;28;20928;-77
2021/05/05 10:14:22;;;;;;;2.20;1.50;;;21.70;38.90;;;;;;5036013;28;21083;-78
2021/05/05 10:16:50;;;;;;;3.90;1.40;;;22.00;38.10;;;;;;5037160;28;20536;-77
2021/05/05 10:19:19;;;;;;;1.23;1.10;;;20.50;35.90;;;;;;5037189;28;20528;-78
2021/05/05 10:21:52;;;;;;;2.03;1.40;;;20.30;37.30;;;;;;5037260;28;20492;-78
2021/05/05 10:24:20;;;;;;;1.63;1.40;;;20.60;38.00;;;;;;5037329;28;20558;-78
2021/05/05 10:26:47;;;;;;;2.53;1.27;;;19.60;40.00;;;;;;5037085;28;20435;-77
2021/05/05 10:29:14;;;;;;;1.37;1.27;;;19.90;40.00;;;;;;5037950;28;20803;-78
2021/05/05 10:31:41;;;;;;;2.17;1.60;;;20.40;39.80;;;;;;5037245;28;20457;-78
2021/05/05 10:34:15;;;;;;;2.60;1.20;;;20.30;38.40;;;;;;5036981;28;20996;-78
2021/05/05 10:36:46;;;;;;;1.60;1.00;;;20.30;38.50;;;;;;5037732;28;20823;-78
2021/05/05 10:39:37;;;;;;;1.87;1.60;;;20.70;38.70;;;;;;5037958;28;20473;-77
2021/05/05 10:42:11;;;;;;;2.50;1.43;;;19.90;39.20;;;;;;5037362;28;20587;-78
2021/05/05 10:44:41;;;;;;;1.60;1.20;;;19.70;38.60;;;;;;5037436;28;20480;-78
2021/05/05 10:47:16;;;;;;;1.30;1.20;;;18.80;41.00;;;;;;5036146;28;20302;-77
2021/05/05 10:50:13;;;;;;;1.95;1.23;;;17.10;42.60;;;;;;5036515;28;20211;-78
2021/05/05 10:53:02;;;;;;;1.05;0.95;;;16.00;44.50;;;;;;4975135;28;20543;-77
2021/05/05 10:55:41;;;;;;;5.53;0.65;;;14.00;48.60;;;;;;5030429;28;20311;-77
2021/05/05 10:58:10;;;;;;;2.95;0.40;;;11.40;64.20;;;;;;5035753;28;20204;-77
2021/05/05 11:00:54;;;;;;;0.50;0.45;;;10.60;90.50;;;;;;5035373;28;20208;-77
2021/05/05 11:04:03;;;;;;;1.02;0.80;;;9.90;99.90;;;;;;5035372;28;20312;-77
2021/05/05 11:06:50;;;;;;;1.42;0.80;;;8.70;99.90;;;;;;5034995;28;20208;-77
2021/05/05 11:09:42;;;;;;;2.13;0.90;;;8.10;99.90;;;;;;5035343;28;20210;-77
2021/05/05 11:12:44;;;;;;;1.85;1.35;;;7.80;99.90;;;;;;5035362;28;20204;-77
2021/05/05 11:15:11;;;;;;;1.10;1.00;;;7.70;99.90;;;;;;5035213;28;20310;-77
2021/05/05 11:17:38;;;;;;;1.45;1.30;;;7.90;99.90;;;;;;5034862;28;20295;-77
2021/05/05 11:20:08;;;;;;;0.60;0.60;;;8.10;99.90;;;;;;5035174;28;20204;-77
2021/05/05 11:22:48;;;;;;;1.05;0.85;;;8.30;99.90;;;;;;5035080;28;20311;-77
2021/05/05 11:25:24;;;;;;;0.98;0.73;;;8.50;99.90;;;;;;5034346;28;20228;-77
2021/05/05 11:27:53;;;;;;;1.27;1.00;;;8.60;99.90;;;;;;5034971;28;20561;-77
2021/05/05 11:30:52;;;;;;;2.35;0.57;;;9.00;99.90;;;;;;5034979;28;20258;-77
2021/05/05 11:33:19;;;;;;;0.60;0.50;;;9.20;99.90;;;;;;5034374;28;20570;-77
2021/05/05 11:35:46;;;;;;;0.98;0.85;;;9.50;99.90;;;;;;5034099;28;20764;-77
2021/05/05 11:38:19;;;;;;;1.58;0.95;;;9.60;99.90;;;;;;5034718;28;20557;-77
2021/05/05 11:41:01;;;;;;;0.95;0.85;;;9.90;99.90;;;;;;5034513;28;20219;-77
2021/05/05 11:43:29;;;;;;;1.00;0.90;;;10.10;99.90;;;;;;5034114;28;20228;-77
2021/05/05 11:45:59;;;;;;;1.65;0.70;;;10.30;99.90;;;;;;5034231;28;20294;-77
2021/05/05 11:48:27;;;;;;;3.10;2.10;;;10.20;99.90;;;;;;5034470;28;20219;-77
2021/05/05 11:50:53;;;;;;;1.00;0.90;;;10.10;99.90;;;;;;5034506;28;20203;-77
2021/05/05 11:53:32;;;;;;;1.25;1.00;;;10.30;99.90;;;;;;5034562;28;20204;-77
2021/05/05 11:55:59;;;;;;;0.85;0.80;;;10.60;99.90;;;;;;5034599;28;20184;-77
2021/05/05 11:58:26;;;;;;;1.15;0.82;;;10.80;99.90;;;;;;5034184;28;20294;-77
2021/05/05 12:00:53;;;;;;;1.10;1.00;;;11.00;99.90;;;;;;5034048;28;20665;-77
2021/05/05 12:03:24;;;;;;;2.05;1.10;;;11.10;99.90;;;;;;5034075;28;20698;-77
2021/05/05 12:05:55;;;;;;;1.00;0.80;;;11.10;99.90;;;;;;5034307;28;20550;-77
2021/05/05 12:08:23;;;;;;;1.10;1.00;;;11.20;99.90;;;;;;5034410;28;20227;-77
2021/05/05 12:10:51;;;;;;;1.88;0.95;;;11.10;99.00;;;;;;5033957;28;20203;-77
2021/05/05 12:13:18;;;;;;;1.20;1.05;;;11.10;99.30;;;;;;5033793;28;20654;-77
2021/05/05 12:15:52;;;;;;;1.35;1.08;;;11.40;98.90;;;;;;5033882;28;20687;-77
2021/05/05 12:18:22;;;;;;;1.02;0.80;;;11.50;98.30;;;;;;5033895;28;20227;-77
2021/05/05 12:20:50;;;;;;;5.47;2.90;;;11.60;96.20;;;;;;5034151;28;20299;-77
2021/05/05 12:23:17;;;;;;;1.00;0.90;;;11.70;98.10;;;;;;5033709;28;20255;-77
2021/05/05 12:25:43;;;;;;;1.15;1.00;;;12.00;96.80;;;;;;5033661;28;20258;-77
2021/05/05 12:28:13;;;;;;;2.20;1.13;;;12.10;96.60;;;;;;5033943;28;20200;-77
2021/05/05 12:30:57;;;;;;;1.73;1.30;;;12.20;94.90;;;;;;5033830;28;20208;-77
2021/05/05 12:33:36;;;;;;;1.70;1.60;;;12.30;95.40;;;;;;5034019;28;20287;-77
2021/05/05 12:36:07;;;;;;;1.63;1.48;;;12.40;93.90;;;;;;5033295;28;20203;-77
2021/05/05 12:38:35;;;;;;;1.20;1.10;;;12.20;92.50;;;;;;5033196;28;20210;-77
2021/05/05 12:41:03;;;;;;;1.77;0.95;;;12.10;93.40;;;;;;5033823;28;20207;-77
2021/05/05 12:43:30;;;;;;;1.55;1.00;;;12.10;93.80;;;;;;5033769;28;20334;-77
2021/05/05 12:45:58;;;;;;;1.17;1.00;;;11.70;91.00;;;;;;5033821;28;20200;-77
2021/05/05 12:48:28;;;;;;;1.88;1.25;;;11.50;92.00;;;;;;5033536;28;20298;-77
2021/05/05 12:51:05;;;;;;;2.45;1.30;;;11.50;90.70;;;;;;5033656;28;20223;-77
2021/05/05 12:53:48;;;;;;;0.80;0.75;;;11.40;90.20;;;;;;5033745;28;20288;-77
2021/05/05 12:56:15;;;;;;;0.80;0.75;;;10.80;91.60;;;;;;5033686;28;20319;-77
2021/05/05 12:58:43;;;;;;;1.65;0.90;;;10.60;95.00;;;;;;5033480;28;20554;-77
2021/05/05 13:01:10;;;;;;;1.20;0.70;;;10.60;95.50;;;;;;5033473;28;20208;-77
2021/05/05 13:03:40;;;;;;;1.30;0.80;;;10.80;97.70;;;;;;5032888;28;20314;-77
2021/05/05 13:06:10;;;;;;;0.80;0.80;;;11.10;95.20;;;;;;5033499;28;20212;-78